createdAt,value
2017-10-13T00:01:40.379Z,99888.28
2017-10-13T00:04:06.604Z,99882.26
2017-10-13T00:06:32.816Z,99887.94
2017-10-13T00:08:59.060Z,99883.81
2017-10-13T00:11:25.289Z,99888.70
2017-10-13T00:13:51.495Z,99886.08
2017-10-13T00:16:17.728Z,99881.36
2017-10-13T00:18:43.978Z,99879.13
2017-10-13T00:21:10.248Z,99872.47
2017-10-13T00:23:36.462Z,99879.22
2017-10-13T00:26:02.693Z,99877.80
2017-10-13T00:28:28.934Z,99876.21
2017-10-13T00:30:55.166Z,99873.80
2017-10-13T00:33:21.463Z,99870.27
2017-10-13T00:35:47.675Z,99876.21
2017-10-13T00:38:13.888Z,99872.76
2017-10-13T00:40:40.109Z,99864.36
2017-10-13T00:43:06.324Z,99875.20
2017-10-13T00:45:32.585Z,99872.54
2017-10-13T00:47:58.814Z,99874.81
2017-10-13T00:50:25.024Z,99872.84
2017-10-13T00:52:51.262Z,99866.80
2017-10-13T00:55:17.483Z,99873.58
2017-10-13T00:57:43.744Z,99878.47
2017-10-13T01:00:09.963Z,99883.15
2017-10-13T01:02:36.167Z,99875.89
2017-10-13T01:05:02.414Z,99889.95
2017-10-13T01:07:28.640Z,99891.84
2017-10-13T01:09:54.895Z,99895.96
2017-10-13T01:12:21.133Z,99891.44
2017-10-13T01:14:47.365Z,99884.37
2017-10-13T01:17:13.621Z,99886.81
2017-10-13T01:19:39.870Z,99885.25
2017-10-13T01:22:06.118Z,99889.04
2017-10-13T01:24:32.334Z,99885.46
2017-10-13T01:26:58.563Z,99874.03
2017-10-13T01:29:24.803Z,99872.91
2017-10-13T01:31:51.033Z,99878.95
2017-10-13T01:34:17.288Z,99883.64
2017-10-13T01:36:43.502Z,99881.82
2017-10-13T01:39:09.710Z,99883.16
2017-10-13T01:41:35.942Z,99882.20
2017-10-13T01:44:02.144Z,99879.34
2017-10-13T01:46:28.397Z,99882.59
2017-10-13T01:48:54.616Z,99888.15
2017-10-13T01:51:20.834Z,99883.84
2017-10-13T01:53:47.087Z,99886.12
2017-10-13T01:56:13.304Z,99894.18
2017-10-13T01:58:39.544Z,99894.55
2017-10-13T02:01:05.763Z,99887.70
2017-10-13T02:03:31.969Z,99892.41
2017-10-13T02:05:58.197Z,99888.92
2017-10-13T02:08:24.435Z,99899.70
2017-10-13T02:10:51.572Z,99893.73
2017-10-13T02:13:17.800Z,99889.86
2017-10-13T02:15:44.347Z,99892.40
2017-10-13T02:18:10.598Z,99889.84
2017-10-13T02:20:36.804Z,99895.27
2017-10-13T02:23:03.047Z,99892.25
2017-10-13T02:25:29.261Z,99900.45
2017-10-13T02:27:55.498Z,99893.99
2017-10-13T02:30:21.817Z,99895.33
2017-10-13T02:32:48.031Z,99899.23
2017-10-13T02:35:14.257Z,99894.16
2017-10-13T02:37:40.499Z,99899.93
2017-10-13T02:40:06.734Z,99902.66
2017-10-13T02:42:32.970Z,99901.31
2017-10-13T02:44:59.210Z,99893.30
2017-10-13T02:47:26.482Z,99895.75
2017-10-13T02:49:52.671Z,99897.89
2017-10-13T02:52:18.893Z,99903.48
2017-10-13T02:54:45.158Z,99903.45
2017-10-13T02:57:11.423Z,99906.02
2017-10-13T02:59:37.672Z,99906.31
2017-10-13T03:02:03.905Z,99907.33
2017-10-13T03:04:30.114Z,99909.79
2017-10-13T03:06:56.397Z,99907.77
2017-10-13T03:09:22.656Z,99912.50
2017-10-13T03:11:48.883Z,99907.42
2017-10-13T03:14:15.685Z,99912.26
2017-10-13T03:16:41.935Z,99915.18
2017-10-13T03:19:08.187Z,99916.20
2017-10-13T03:21:34.484Z,99918.59
2017-10-13T03:24:00.792Z,99919.31
2017-10-13T03:26:27.008Z,99921.72
2017-10-13T03:28:53.229Z,99916.94
2017-10-13T03:31:22.102Z,99923.03
2017-10-13T03:33:48.314Z,99928.77
2017-10-13T03:36:14.578Z,99925.02
2017-10-13T03:38:40.824Z,99926.97
2017-10-13T03:41:07.044Z,99924.44
2017-10-13T03:43:33.296Z,99930.02
2017-10-13T03:45:59.554Z,99929.44
2017-10-13T03:48:25.801Z,99931.23
2017-10-13T03:50:52.036Z,99931.19
2017-10-13T03:53:18.283Z,99928.05
2017-10-13T03:55:44.540Z,99929.56
2017-10-13T03:58:10.839Z,99927.02
2017-10-13T04:00:37.062Z,99934.38
2017-10-13T04:03:03.417Z,99933.73
2017-10-13T04:05:29.649Z,99931.47
2017-10-13T04:07:55.885Z,99932.25
2017-10-13T04:10:22.100Z,99934.21
2017-10-13T04:12:48.334Z,99930.50
2017-10-13T04:15:14.545Z,99938.70
2017-10-13T04:17:40.782Z,99938.92
2017-10-13T04:20:07.045Z,99943.91
2017-10-13T04:22:33.284Z,99937.73
2017-10-13T04:24:59.533Z,99937.22
2017-10-13T04:27:25.743Z,99930.91
2017-10-13T04:29:51.961Z,99942.00
2017-10-13T04:32:18.275Z,99942.45
2017-10-13T04:34:44.529Z,99939.45
2017-10-13T04:37:10.782Z,99939.90
2017-10-13T04:39:37.679Z,99936.56
2017-10-13T04:42:03.903Z,99944.94
2017-10-13T04:44:30.184Z,99943.10
2017-10-13T04:46:56.419Z,99940.47
2017-10-13T04:49:23.093Z,99944.03
2017-10-13T04:51:49.377Z,99950.73
2017-10-13T04:54:15.634Z,99956.19
2017-10-13T04:56:41.931Z,99960.61
2017-10-13T04:59:08.184Z,99954.14
2017-10-13T05:01:34.452Z,99960.10
2017-10-13T05:04:00.755Z,99958.64
2017-10-13T05:06:27.014Z,99950.28
2017-10-13T05:08:53.328Z,99951.50
2017-10-13T05:11:19.567Z,99949.13
2017-10-13T05:13:45.855Z,99950.66
2017-10-13T05:16:12.147Z,99953.52
2017-10-13T05:18:38.418Z,99955.87
2017-10-13T05:21:04.653Z,99951.64
2017-10-13T05:23:30.934Z,99944.45
2017-10-13T05:25:57.154Z,99954.38
2017-10-13T05:28:23.389Z,99941.12
2017-10-13T05:30:49.654Z,99937.73
2017-10-13T05:33:15.912Z,99933.69
2017-10-13T05:35:42.268Z,99938.50
2017-10-13T05:38:08.505Z,99938.87
2017-10-13T05:40:34.878Z,99939.03
2017-10-13T05:43:01.133Z,99926.36
2017-10-13T05:45:27.379Z,99936.15
2017-10-13T05:47:53.690Z,99933.55
2017-10-13T05:50:19.972Z,99933.58
2017-10-13T05:52:46.277Z,99936.53
2017-10-13T05:55:12.624Z,99934.11
2017-10-13T05:57:38.901Z,99940.44
2017-10-13T06:00:05.142Z,99943.68
2017-10-13T06:02:31.407Z,99944.10
2017-10-13T06:04:57.663Z,99935.08
2017-10-13T06:07:23.931Z,99946.75
2017-10-13T06:09:50.168Z,99945.69
2017-10-13T06:12:16.422Z,99942.44
2017-10-13T06:14:42.699Z,99941.45
2017-10-13T06:17:08.959Z,99953.70
2017-10-13T06:19:35.254Z,99947.92
2017-10-13T06:22:01.744Z,99942.36
2017-10-13T06:24:28.022Z,99938.03
2017-10-13T06:26:54.288Z,99936.69
2017-10-13T06:29:20.557Z,99940.59
2017-10-13T06:31:46.935Z,99943.42
2017-10-13T06:34:13.250Z,99941.80
2017-10-13T06:36:39.607Z,99938.75
2017-10-13T06:39:05.864Z,99937.61
2017-10-13T06:41:32.121Z,99937.88
2017-10-13T06:43:59.472Z,99944.56
2017-10-13T06:46:25.742Z,99941.69
2017-10-13T06:48:52.351Z,99942.69
2017-10-13T06:51:18.610Z,99936.82
2017-10-13T06:53:44.944Z,99939.62
2017-10-13T06:56:11.234Z,99936.78
2017-10-13T06:58:37.490Z,99934.64
2017-10-13T07:01:04.680Z,99931.53
2017-10-13T07:03:31.070Z,99937.63
2017-10-13T07:05:57.302Z,99934.38
2017-10-13T07:08:23.651Z,99931.77
2017-10-13T07:10:49.913Z,99934.72
2017-10-13T07:13:16.161Z,99934.52
2017-10-13T07:15:42.388Z,99933.25
2017-10-13T07:18:08.622Z,99927.66
2017-10-13T07:20:35.046Z,99924.98
2017-10-13T07:23:01.299Z,99922.13
2017-10-13T07:25:27.534Z,99931.11
2017-10-13T07:27:53.848Z,99927.28
2017-10-13T07:30:20.121Z,99922.11
2017-10-13T07:32:46.381Z,99924.49
2017-10-13T07:35:12.617Z,99924.17
2017-10-13T07:37:38.830Z,99923.62
2017-10-13T07:40:05.091Z,99915.83
2017-10-13T07:42:31.360Z,99928.08
2017-10-13T07:44:57.622Z,99918.83
2017-10-13T07:47:23.861Z,99915.13
2017-10-13T07:49:50.097Z,99912.45
2017-10-13T07:52:16.360Z,99916.42
2017-10-13T07:54:42.622Z,99910.77
2017-10-13T07:57:08.915Z,99906.05
2017-10-13T07:59:35.120Z,99905.34
2017-10-13T08:02:01.383Z,99907.28
2017-10-13T08:04:27.691Z,99898.00
2017-10-13T08:06:53.928Z,99896.63
2017-10-13T08:09:21.082Z,99905.38
2017-10-13T08:11:47.320Z,99893.12
2017-10-13T08:14:13.580Z,99897.00
2017-10-13T08:16:40.155Z,99889.53
2017-10-13T08:19:06.440Z,99862.67
2017-10-13T08:21:32.710Z,99895.53
2017-10-13T08:23:59.990Z,99889.02
2017-10-13T08:26:26.230Z,99888.39
2017-10-13T08:28:52.475Z,99880.88
2017-10-13T08:31:18.796Z,99875.62
2017-10-13T08:33:45.085Z,99872.23
2017-10-13T08:36:11.348Z,99875.70
2017-10-13T08:38:37.668Z,99866.73
2017-10-13T08:41:03.915Z,99874.42
2017-10-13T08:43:30.214Z,99865.14
2017-10-13T08:45:58.082Z,99862.05
2017-10-13T08:48:24.344Z,99864.25
2017-10-13T08:50:50.652Z,99859.98
2017-10-13T08:53:16.902Z,99863.45
2017-10-13T08:55:46.470Z,99853.02
2017-10-13T08:58:12.775Z,99848.78
2017-10-13T09:00:39.008Z,99848.02
2017-10-13T09:03:05.287Z,99850.38
2017-10-13T09:05:31.597Z,99845.12
2017-10-13T09:08:03.026Z,99848.77
2017-10-13T09:10:29.274Z,99844.51
2017-10-13T09:12:55.538Z,99849.55
2017-10-13T09:15:22.715Z,99842.13
2017-10-13T09:17:48.994Z,99842.20
2017-10-13T09:20:15.328Z,99833.52
2017-10-13T09:22:41.632Z,99846.83
2017-10-13T09:25:11.390Z,99846.14
2017-10-13T09:27:37.743Z,99839.52
2017-10-13T09:30:04.035Z,99837.39
2017-10-13T09:32:30.290Z,99835.34
2017-10-13T09:34:56.520Z,99839.73
2017-10-13T09:37:22.800Z,99827.67
2017-10-13T09:39:49.104Z,99835.10
2017-10-13T09:42:15.371Z,99830.03
2017-10-13T09:44:41.659Z,99830.33
2017-10-13T09:47:07.900Z,99829.62
2017-10-13T09:49:34.163Z,99815.97
2017-10-13T09:58:43.902Z,99810.86
2017-10-13T10:01:10.153Z,99804.95
2017-10-13T10:03:36.631Z,99798.38
2017-10-13T10:06:02.872Z,99800.57
2017-10-13T10:08:29.141Z,99794.38
2017-10-13T10:10:55.441Z,99796.35
2017-10-13T10:13:21.673Z,99794.58
2017-10-13T10:15:47.915Z,99791.62
2017-10-13T10:18:14.191Z,99792.39
2017-10-13T10:20:40.883Z,99793.58
2017-10-13T10:23:07.777Z,99784.84
2017-10-13T10:25:34.015Z,99780.31
2017-10-13T10:28:00.263Z,99785.83
2017-10-13T10:30:26.525Z,99783.23
2017-10-13T10:32:54.121Z,99781.81
2017-10-13T10:35:20.438Z,99780.16
2017-10-13T10:37:46.749Z,99771.69
2017-10-13T10:40:13.048Z,99768.26
2017-10-13T10:42:39.296Z,99758.22
2017-10-13T10:45:05.553Z,99760.89
2017-10-13T10:47:31.868Z,99765.13
2017-10-13T10:49:58.136Z,99764.45
2017-10-13T10:52:26.816Z,99748.77
2017-10-13T10:54:53.081Z,99749.29
2017-10-13T10:57:19.410Z,99746.39
2017-10-13T10:59:45.698Z,99739.37
2017-10-13T11:02:11.946Z,99735.27
2017-10-13T11:04:38.208Z,99736.34
2017-10-13T11:07:04.538Z,99727.04
2017-10-13T11:09:30.796Z,99730.86
2017-10-13T11:11:57.081Z,99726.13
2017-10-13T11:14:23.349Z,99723.44
2017-10-13T11:16:49.782Z,99723.41
2017-10-13T11:19:16.063Z,99721.50
2017-10-13T11:21:42.300Z,99725.70
2017-10-13T11:24:08.584Z,99721.51
2017-10-13T11:26:34.813Z,99723.73
2017-10-13T11:29:01.068Z,99724.10
2017-10-13T11:31:27.327Z,99721.70
2017-10-13T11:33:53.582Z,99714.86
2017-10-13T11:36:19.861Z,99717.96
2017-10-13T11:38:46.144Z,99720.74
2017-10-13T11:41:12.389Z,99715.91
2017-10-13T11:43:38.618Z,99712.20
2017-10-13T11:46:04.934Z,99711.86
2017-10-13T11:48:31.211Z,99709.23
2017-10-13T11:50:57.543Z,99704.84
2017-10-13T11:53:23.780Z,99709.38
2017-10-13T11:55:50.060Z,99696.02
2017-10-13T11:58:16.323Z,99704.70
2017-10-13T12:00:42.642Z,99693.43
2017-10-13T12:03:08.935Z,99701.16
2017-10-13T12:05:35.208Z,99694.13
2017-10-13T12:08:01.470Z,99682.10
2017-10-13T12:10:28.516Z,99681.09
2017-10-13T12:12:54.762Z,99681.14
2017-10-13T12:15:21.051Z,99690.33
2017-10-13T12:17:47.287Z,99686.20
2017-10-13T12:20:13.540Z,99684.83
2017-10-13T12:22:39.764Z,99687.02
2017-10-13T12:25:06.360Z,99680.27
2017-10-13T12:27:32.670Z,99667.15
2017-10-13T12:29:58.906Z,99663.22
2017-10-13T12:32:25.130Z,99662.27
2017-10-13T12:34:51.426Z,99670.75
2017-10-13T12:37:17.675Z,99666.11
2017-10-13T12:39:44.038Z,99664.58
2017-10-13T12:42:10.302Z,99661.39
2017-10-13T12:44:36.543Z,99654.23
2017-10-13T12:47:02.804Z,99649.91
2017-10-13T12:49:29.059Z,99633.49
2017-10-13T12:51:55.380Z,99644.15
2017-10-13T12:54:23.390Z,99645.53
2017-10-13T12:56:49.629Z,99640.88
2017-10-13T12:59:15.857Z,99640.33
2017-10-13T13:01:42.487Z,99644.91
2017-10-13T13:04:08.749Z,99633.28
2017-10-13T13:06:35.167Z,99630.16
2017-10-13T13:09:01.422Z,99631.35
2017-10-13T13:11:27.655Z,99619.66
2017-10-13T13:13:54.206Z,99627.82
2017-10-13T13:16:20.517Z,99636.50
2017-10-13T13:18:46.767Z,99624.84
2017-10-13T13:21:13.010Z,99630.13
2017-10-13T13:23:39.339Z,99612.52
2017-10-13T13:26:05.583Z,99619.00
2017-10-13T13:28:31.905Z,99626.45
2017-10-13T13:30:58.172Z,99620.37
2017-10-13T13:33:24.401Z,99620.12
2017-10-13T13:35:50.651Z,99627.37
2017-10-13T13:38:16.866Z,99621.08
2017-10-13T13:40:43.129Z,99631.06
2017-10-13T13:43:09.458Z,99627.84
2017-10-13T13:45:36.321Z,99624.06
2017-10-13T13:48:02.698Z,99613.71
2017-10-13T13:50:28.929Z,99610.19
2017-10-13T13:52:55.212Z,99610.64
2017-10-13T13:55:21.444Z,99612.37
2017-10-13T13:57:47.792Z,99607.94
2017-10-13T14:00:14.049Z,99608.79
2017-10-13T14:02:40.318Z,99605.03
2017-10-13T14:05:06.582Z,99607.16
2017-10-13T14:07:32.800Z,99607.73
2017-10-13T14:09:59.044Z,99598.80
2017-10-13T14:12:25.328Z,99594.39
2017-10-13T14:14:51.573Z,99597.61
2017-10-13T14:17:17.812Z,99600.31
2017-10-13T14:19:44.083Z,99590.20
2017-10-13T14:22:10.333Z,99596.60
2017-10-13T14:24:40.450Z,99595.47
2017-10-13T14:27:07.931Z,99585.14
2017-10-13T14:29:34.159Z,99598.03
2017-10-13T14:32:00.480Z,99598.88
2017-10-13T14:34:26.823Z,99596.44
2017-10-13T14:36:53.091Z,99599.73
2017-10-13T14:39:19.329Z,99596.06
2017-10-13T14:41:45.542Z,99607.74
2017-10-13T14:44:12.236Z,99609.03
2017-10-13T14:46:38.505Z,99603.21
2017-10-13T14:49:04.934Z,99612.05
2017-10-13T14:51:31.393Z,99614.98
2017-10-13T14:54:03.283Z,99605.13
2017-10-13T14:56:29.692Z,99626.31
2017-10-13T14:58:57.067Z,99631.97
2017-10-13T15:01:23.340Z,99630.21
2017-10-13T15:03:49.665Z,99628.37
2017-10-13T15:06:15.976Z,99629.66
2017-10-13T15:08:43.174Z,99631.17
2017-10-13T15:11:09.436Z,99625.19
2017-10-13T15:13:35.704Z,99632.58
2017-10-13T15:16:01.921Z,99633.92
2017-10-13T15:18:29.469Z,99630.23
2017-10-13T15:20:59.865Z,99639.88
2017-10-13T15:23:28.002Z,99635.22
2017-10-13T15:25:54.590Z,99637.41
2017-10-13T15:28:20.903Z,99631.91
2017-10-13T15:30:47.388Z,99635.08
2017-10-13T15:33:13.844Z,99633.79
2017-10-13T15:35:40.395Z,99636.69
2017-10-13T15:38:06.878Z,99633.36
2017-10-13T15:40:33.788Z,99639.88
2017-10-13T15:43:02.462Z,99643.07
2017-10-13T15:45:28.860Z,99643.81
2017-10-13T15:52:57.243Z,99646.60
2017-10-13T15:55:23.699Z,99651.72
2017-10-13T15:57:50.046Z,99649.50
2017-10-13T16:00:17.404Z,99651.27
2017-10-13T16:02:43.836Z,99649.13
2017-10-13T16:07:42.428Z,99658.61
2017-10-13T16:10:09.428Z,99662.72
2017-10-13T16:12:37.128Z,99670.00
2017-10-13T16:15:03.647Z,99668.75
2017-10-13T16:17:30.156Z,99676.67
2017-10-13T16:19:56.835Z,99677.02
2017-10-13T16:22:24.925Z,99676.82
2017-10-13T16:24:51.730Z,99679.09
2017-10-13T16:27:22.533Z,99678.62
2017-10-13T16:29:49.231Z,99679.15
2017-10-13T16:32:20.120Z,99679.15
2017-10-13T16:34:46.746Z,99682.38
2017-10-13T16:37:14.092Z,99681.63
2017-10-13T16:39:41.044Z,99678.59
2017-10-13T16:42:07.887Z,99690.16
2017-10-13T16:44:34.581Z,99692.16
2017-10-13T16:47:01.114Z,99693.92
2017-10-13T16:49:27.859Z,99685.89
2017-10-13T16:51:54.798Z,99691.23
2017-10-13T16:54:21.459Z,99699.48
2017-10-13T16:56:48.046Z,99696.56
2017-10-13T16:59:14.698Z,99692.13
2017-10-13T17:01:41.145Z,99688.37
2017-10-13T17:04:07.610Z,99693.95
2017-10-13T17:06:34.790Z,99690.23
2017-10-13T17:09:01.461Z,99692.00
2017-10-13T17:11:30.582Z,99704.63
2017-10-13T17:13:57.012Z,99691.20
2017-10-13T17:16:25.326Z,99694.20
2017-10-13T17:18:51.835Z,99700.44
2017-10-13T17:21:18.294Z,99705.71
2017-10-13T17:23:45.323Z,99705.75
2017-10-13T17:26:11.842Z,99705.77
2017-10-13T17:28:39.191Z,99706.36
2017-10-13T17:31:05.712Z,99706.58
2017-10-13T17:33:32.370Z,99701.95
2017-10-13T17:36:00.453Z,99701.63
2017-10-13T17:38:27.229Z,99698.95
2017-10-13T17:40:53.915Z,99701.29
2017-10-13T17:43:21.640Z,99695.52
2017-10-13T17:45:48.119Z,99703.13
2017-10-13T17:48:14.982Z,99698.98
2017-10-13T17:50:41.750Z,99694.61
2017-10-13T17:53:08.374Z,99702.22
2017-10-13T17:55:38.396Z,99706.61
2017-10-13T17:58:05.171Z,99710.78
2017-10-13T18:03:03.293Z,99709.17
2017-10-13T18:20:57.140Z,99736.45
2017-10-13T18:23:23.950Z,99740.30
2017-10-13T18:25:54.740Z,99733.77
2017-10-13T18:28:21.620Z,99735.95
2017-10-13T18:30:50.236Z,99741.00
2017-10-13T18:33:17.181Z,99743.89
2017-10-13T18:35:44.121Z,99742.72
2017-10-13T18:38:11.207Z,99744.42
2017-10-13T18:40:38.055Z,99753.11
2017-10-13T18:43:04.986Z,99750.72
2017-10-13T18:45:31.932Z,99755.15
2017-10-13T18:47:58.784Z,99758.77
2017-10-13T18:50:25.733Z,99758.30
2017-10-13T18:52:52.726Z,99763.77
2017-10-13T18:55:19.668Z,99764.83
2017-10-13T18:57:46.505Z,99760.72
2017-10-13T19:00:13.778Z,99774.70
2017-10-13T19:02:40.861Z,99776.75
2017-10-13T19:07:38.323Z,99791.56
2017-10-13T19:10:05.413Z,99788.77
2017-10-13T19:12:32.217Z,99786.02
2017-10-13T19:14:59.118Z,99792.77
2017-10-13T19:17:26.507Z,99798.66
2017-10-13T19:19:53.292Z,99791.10
2017-10-13T19:22:20.512Z,99792.12
2017-10-13T19:24:47.320Z,99796.63
2017-10-13T19:27:14.339Z,99794.02
2017-10-13T19:29:41.191Z,99782.91
2017-10-13T19:32:08.388Z,99795.14
2017-10-13T19:34:35.496Z,99795.78
2017-10-13T19:37:02.497Z,99799.62
2017-10-13T19:39:29.356Z,99795.78
2017-10-13T19:41:56.606Z,99798.02
2017-10-13T19:44:23.415Z,99797.80
2017-10-13T19:46:50.311Z,99805.30
2017-10-13T19:49:17.067Z,99795.99
2017-10-13T19:51:44.092Z,99802.26
2017-10-13T19:54:10.851Z,99806.63
2017-10-13T19:56:37.610Z,99803.97
2017-10-13T19:59:04.288Z,99800.66
2017-10-13T20:01:31.373Z,99803.36
2017-10-13T20:03:58.010Z,99804.14
2017-10-13T20:06:26.679Z,99797.45
2017-10-13T20:08:53.274Z,99801.70
2017-10-13T20:11:20.394Z,99793.48
2017-10-13T20:13:46.893Z,99795.39
2017-10-13T20:16:13.698Z,99796.89
2017-10-13T20:18:40.156Z,99801.16
2017-10-13T20:21:07.238Z,99795.39
2017-10-13T20:23:34.826Z,99799.33
2017-10-13T20:26:02.489Z,99799.06
2017-10-13T20:28:29.193Z,99799.23
2017-10-13T20:30:57.074Z,99795.12
2017-10-13T20:33:24.508Z,99804.48
2017-10-13T20:35:54.979Z,99799.02
2017-10-13T20:38:21.438Z,99788.58
2017-10-13T20:40:48.324Z,99785.78
2017-10-13T20:45:45.319Z,99788.17
2017-10-13T20:48:11.738Z,99785.66
2017-10-13T20:53:09.739Z,99789.72
2017-10-13T20:55:36.158Z,99785.30
2017-10-13T20:58:02.544Z,99781.41
2017-10-13T21:00:28.904Z,99791.24
2017-10-13T21:02:55.292Z,99790.11
2017-10-13T21:05:21.613Z,99786.34
2017-10-13T21:07:48.537Z,99787.45
2017-10-13T21:10:14.873Z,99789.42
2017-10-13T21:12:41.266Z,99787.91
2017-10-13T21:15:07.649Z,99786.21
2017-10-13T21:17:34.050Z,99795.25
2017-10-13T21:20:01.207Z,99795.66
2017-10-13T21:22:28.445Z,99794.31
2017-10-13T21:24:54.823Z,99801.20
2017-10-13T21:27:21.114Z,99807.50
2017-10-13T21:29:47.656Z,99806.02
2017-10-13T21:32:14.817Z,99806.34
2017-10-13T21:34:41.140Z,99809.02
2017-10-13T21:37:07.413Z,99805.67
2017-10-13T21:39:33.670Z,99800.25
2017-10-13T21:41:59.999Z,99799.94
2017-10-13T21:44:26.424Z,99814.39
2017-10-13T21:46:52.768Z,99814.83
2017-10-13T21:49:19.094Z,99824.57
2017-10-13T21:51:45.368Z,99812.94
2017-10-13T21:54:11.654Z,99820.31
2017-10-13T21:56:37.878Z,99821.09
2017-10-13T21:59:04.135Z,99828.05
2017-10-13T22:01:30.461Z,99833.13
2017-10-13T22:03:56.787Z,99831.84
2017-10-13T22:06:23.104Z,99837.30
2017-10-13T22:08:49.441Z,99839.53
2017-10-13T22:11:15.677Z,99839.53
2017-10-13T22:13:42.042Z,99842.50
2017-10-13T22:16:08.362Z,99837.73
2017-10-13T22:18:34.684Z,99836.91
2017-10-13T22:21:01.005Z,99834.06
2017-10-13T22:23:27.340Z,99840.94
2017-10-13T22:25:53.673Z,99834.19
2017-10-13T22:28:19.986Z,99830.52
2017-10-13T22:30:46.331Z,99833.33
2017-10-13T22:33:12.680Z,99830.86
2017-10-13T22:35:39.027Z,99832.89
2017-10-13T22:38:05.328Z,99841.05
2017-10-13T22:40:31.681Z,99833.95
2017-10-13T22:42:58.037Z,99842.80
2017-10-13T22:45:24.308Z,99847.09
2017-10-13T22:47:50.569Z,99847.06
2017-10-13T22:50:16.892Z,99845.50
2017-10-13T22:52:43.868Z,99843.70
2017-10-13T22:55:10.177Z,99848.61
2017-10-13T22:57:36.503Z,99850.86
2017-10-13T23:00:02.829Z,99852.94
2017-10-13T23:02:29.055Z,99847.75
2017-10-13T23:04:55.410Z,99848.01
2017-10-13T23:07:22.684Z,99849.06
2017-10-13T23:09:48.995Z,99854.52
2017-10-13T23:12:15.305Z,99852.72
2017-10-13T23:14:41.653Z,99853.78
2017-10-13T23:17:08.002Z,99868.23
2017-10-13T23:19:34.308Z,99862.02
2017-10-13T23:22:00.671Z,99863.89
2017-10-13T23:24:26.971Z,99865.64
2017-10-13T23:26:53.293Z,99864.66
2017-10-13T23:29:19.654Z,99870.78
2017-10-13T23:31:45.961Z,99865.94
2017-10-13T23:34:12.183Z,99867.95
2017-10-13T23:36:38.535Z,99870.59
2017-10-13T23:39:04.874Z,99869.41
2017-10-13T23:41:31.204Z,99868.08
2017-10-13T23:43:57.524Z,99869.45
2017-10-13T23:46:23.892Z,99866.31
2017-10-13T23:48:50.202Z,99864.09
2017-10-13T23:51:16.521Z,99865.06
2017-10-13T23:53:42.843Z,99869.05
2017-10-13T23:56:09.071Z,99860.14
2017-10-13T23:58:35.340Z,99862.16
